sensor_id;sensor_type;location;lat;lon;timestamp;P1;durP1;ratioP1;P2;durP2;ratioP2
48897;SDS011;34713;50.038;20.000;2022-08-06T00:02:02;14.93;;;10.95;;
48897;SDS011;34713;50.038;20.000;2022-08-06T00:04:28;13.50;;;10.60;;
48897;SDS011;34713;50.038;20.000;2022-08-06T00:06:54;14.60;;;10.28;;
48897;SDS011;34713;50.038;20.000;2022-08-06T00:09:20;13.32;;;10.95;;
48897;SDS011;34713;50.038;20.000;2022-08-06T00:11:46;15.18;;;10.03;;
48897;SDS011;34713;50.038;20.000;2022-08-06T00:14:12;14.75;;;9.75;;
48897;SDS011;34713;50.038;20.000;2022-08-06T00:16:38;15.38;;;10.23;;
48897;SDS011;34713;50.038;20.000;2022-08-06T00:19:04;14.23;;;9.08;;
48897;SDS011;34713;50.038;20.000;2022-08-06T00:21:30;18.57;;;10.03;;
48897;SDS011;34713;50.038;20.000;2022-08-06T00:23:57;18.17;;;10.48;;
48897;SDS011;34713;50.038;20.000;2022-08-06T00:26:23;16.02;;;10.80;;
48897;SDS011;34713;50.038;20.000;2022-08-06T00:28:49;16.67;;;9.68;;
48897;SDS011;34713;50.038;20.000;2022-08-06T00:31:16;16.48;;;10.10;;
48897;SDS011;34713;50.038;20.000;2022-08-06T00:33:42;15.43;;;10.53;;
48897;SDS011;34713;50.038;20.000;2022-08-06T00:36:08;14.58;;;10.43;;
48897;SDS011;34713;50.038;20.000;2022-08-06T00:38:34;14.85;;;10.93;;
48897;SDS011;34713;50.038;20.000;2022-08-06T00:41:00;15.18;;;10.18;;
48897;SDS011;34713;50.038;20.000;2022-08-06T00:43:28;16.40;;;9.90;;
48897;SDS011;34713;50.038;20.000;2022-08-06T00:45:54;14.20;;;10.78;;
48897;SDS011;34713;50.038;20.000;2022-08-06T00:48:19;17.07;;;9.78;;
48897;SDS011;34713;50.038;20.000;2022-08-06T00:50:45;13.35;;;10.18;;
48897;SDS011;34713;50.038;20.000;2022-08-06T00:53:11;18.12;;;10.05;;
48897;SDS011;34713;50.038;20.000;2022-08-06T00:55:37;17.87;;;9.95;;
48897;SDS011;34713;50.038;20.000;2022-08-06T00:58:03;14.40;;;10.50;;
48897;SDS011;34713;50.038;20.000;2022-08-06T01:00:29;13.88;;;9.98;;
48897;SDS011;34713;50.038;20.000;2022-08-06T01:02:55;15.32;;;10.43;;
48897;SDS011;34713;50.038;20.000;2022-08-06T01:05:21;14.28;;;10.23;;
48897;SDS011;34713;50.038;20.000;2022-08-06T01:07:46;14.98;;;10.25;;
48897;SDS011;34713;50.038;20.000;2022-08-06T01:10:12;15.68;;;10.00;;
48897;SDS011;34713;50.038;20.000;2022-08-06T01:12:38;18.00;;;10.58;;
48897;SDS011;34713;50.038;20.000;2022-08-06T01:15:04;16.12;;;10.23;;
48897;SDS011;34713;50.038;20.000;2022-08-06T01:17:36;16.10;;;9.65;;
48897;SDS011;34713;50.038;20.000;2022-08-06T01:20:23;15.98;;;9.85;;
48897;SDS011;34713;50.038;20.000;2022-08-06T01:29:17;16.50;;;10.75;;
48897;SDS011;34713;50.038;20.000;2022-08-06T01:32:02;16.15;;;10.55;;
48897;SDS011;34713;50.038;20.000;2022-08-06T01:34:35;16.10;;;9.88;;
48897;SDS011;34713;50.038;20.000;2022-08-06T01:39:49;15.75;;;9.63;;
48897;SDS011;34713;50.038;20.000;2022-08-06T01:42:21;15.15;;;10.18;;
48897;SDS011;34713;50.038;20.000;2022-08-06T01:44:49;14.13;;;9.18;;
48897;SDS011;34713;50.038;20.000;2022-08-06T01:47:18;15.60;;;10.48;;
48897;SDS011;34713;50.038;20.000;2022-08-06T01:49:49;13.50;;;9.53;;
48897;SDS011;34713;50.038;20.000;2022-08-06T01:52:19;10.72;;;9.08;;
48897;SDS011;34713;50.038;20.000;2022-08-06T01:54:47;12.30;;;9.48;;
48897;SDS011;34713;50.038;20.000;2022-08-06T01:57:17;12.95;;;9.18;;
48897;SDS011;34713;50.038;20.000;2022-08-06T01:59:49;17.82;;;10.13;;
48897;SDS011;34713;50.038;20.000;2022-08-06T02:02:21;15.70;;;9.73;;
48897;SDS011;34713;50.038;20.000;2022-08-06T02:04:53;12.30;;;9.78;;
48897;SDS011;34713;50.038;20.000;2022-08-06T02:07:22;13.40;;;10.13;;
48897;SDS011;34713;50.038;20.000;2022-08-06T02:09:52;15.43;;;10.00;;
48897;SDS011;34713;50.038;20.000;2022-08-06T02:12:22;13.45;;;9.48;;
48897;SDS011;34713;50.038;20.000;2022-08-06T02:14:55;14.00;;;9.03;;
48897;SDS011;34713;50.038;20.000;2022-08-06T02:17:25;10.60;;;9.33;;
48897;SDS011;34713;50.038;20.000;2022-08-06T02:19:58;12.13;;;9.38;;
48897;SDS011;34713;50.038;20.000;2022-08-06T02:22:29;13.38;;;9.50;;
48897;SDS011;34713;50.038;20.000;2022-08-06T02:25:03;14.28;;;9.23;;
48897;SDS011;34713;50.038;20.000;2022-08-06T02:27:33;13.53;;;8.85;;
48897;SDS011;34713;50.038;20.000;2022-08-06T02:30:03;12.95;;;9.50;;
48897;SDS011;34713;50.038;20.000;2022-08-06T02:32:29;10.35;;;9.25;;
48897;SDS011;34713;50.038;20.000;2022-08-06T02:34:55;10.68;;;9.45;;
48897;SDS011;34713;50.038;20.000;2022-08-06T02:37:23;15.13;;;10.10;;
48897;SDS011;34713;50.038;20.000;2022-08-06T02:39:57;10.75;;;9.38;;
48897;SDS011;34713;50.038;20.000;2022-08-06T02:42:48;13.03;;;8.98;;
48897;SDS011;34713;50.038;20.000;2022-08-06T02:45:21;11.63;;;8.83;;
48897;SDS011;34713;50.038;20.000;2022-08-06T02:50:33;18.17;;;9.20;;
48897;SDS011;34713;50.038;20.000;2022-08-06T02:53:07;13.80;;;10.63;;
48897;SDS011;34713;50.038;20.000;2022-08-06T02:55:34;14.55;;;10.50;;
48897;SDS011;34713;50.038;20.000;2022-08-06T02:58:10;15.38;;;10.23;;
48897;SDS011;34713;50.038;20.000;2022-08-06T03:00:41;12.65;;;9.78;;
48897;SDS011;34713;50.038;20.000;2022-08-06T03:03:10;13.50;;;9.18;;
48897;SDS011;34713;50.038;20.000;2022-08-06T03:05:40;14.65;;;10.80;;
48897;SDS011;34713;50.038;20.000;2022-08-06T03:08:09;18.67;;;9.98;;
48897;SDS011;34713;50.038;20.000;2022-08-06T03:10:37;17.12;;;9.30;;
48897;SDS011;34713;50.038;20.000;2022-08-06T03:13:04;13.28;;;9.98;;
48897;SDS011;34713;50.038;20.000;2022-08-06T03:15:32;12.33;;;8.80;;
48897;SDS011;34713;50.038;20.000;2022-08-06T03:18:00;18.87;;;10.23;;
48897;SDS011;34713;50.038;20.000;2022-08-06T03:20:29;12.35;;;8.75;;
48897;SDS011;34713;50.038;20.000;2022-08-06T03:22:58;13.58;;;9.23;;
48897;SDS011;34713;50.038;20.000;2022-08-06T03:25:27;14.13;;;8.65;;
48897;SDS011;34713;50.038;20.000;2022-08-06T03:27:54;16.10;;;9.55;;
48897;SDS011;34713;50.038;20.000;2022-08-06T03:30:21;13.25;;;9.35;;
48897;SDS011;34713;50.038;20.000;2022-08-06T03:32:48;11.90;;;9.48;;
48897;SDS011;34713;50.038;20.000;2022-08-06T03:35:16;11.25;;;9.18;;
48897;SDS011;34713;50.038;20.000;2022-08-06T03:37:44;11.53;;;8.70;;
48897;SDS011;34713;50.038;20.000;2022-08-06T03:40:12;12.00;;;9.63;;
48897;SDS011;34713;50.038;20.000;2022-08-06T03:42:39;10.90;;;9.20;;
48897;SDS011;34713;50.038;20.000;2022-08-06T03:45:06;13.00;;;8.70;;
48897;SDS011;34713;50.038;20.000;2022-08-06T03:47:42;10.03;;;8.60;;
48897;SDS011;34713;50.038;20.000;2022-08-06T03:50:14;10.45;;;7.60;;
48897;SDS011;34713;50.038;20.000;2022-08-06T03:52:43;12.15;;;7.92;;
48897;SDS011;34713;50.038;20.000;2022-08-06T03:55:19;21.80;;;8.95;;
48897;SDS011;34713;50.038;20.000;2022-08-06T03:57:48;10.10;;;8.60;;
48897;SDS011;34713;50.038;20.000;2022-08-06T04:00:18;13.72;;;8.50;;
48897;SDS011;34713;50.038;20.000;2022-08-06T04:02:48;14.95;;;8.98;;
48897;SDS011;34713;50.038;20.000;2022-08-06T04:05:17;11.35;;;8.33;;
48897;SDS011;34713;50.038;20.000;2022-08-06T04:07:46;10.72;;;8.28;;
48897;SDS011;34713;50.038;20.000;2022-08-06T04:10:15;10.98;;;8.45;;
48897;SDS011;34713;50.038;20.000;2022-08-06T04:12:43;9.60;;;8.28;;
48897;SDS011;34713;50.038;20.000;2022-08-06T04:15:11;12.28;;;8.25;;
48897;SDS011;34713;50.038;20.000;2022-08-06T04:17:39;12.30;;;7.83;;
48897;SDS011;34713;50.038;20.000;2022-08-06T04:20:10;10.32;;;7.78;;
48897;SDS011;34713;50.038;20.000;2022-08-06T04:22:39;13.55;;;8.35;;
48897;SDS011;34713;50.038;20.000;2022-08-06T04:25:05;11.57;;;8.05;;
48897;SDS011;34713;50.038;20.000;2022-08-06T04:27:32;11.22;;;8.40;;
48897;SDS011;34713;50.038;20.000;2022-08-06T04:30:00;11.48;;;9.05;;
48897;SDS011;34713;50.038;20.000;2022-08-06T04:32:26;13.25;;;8.23;;
48897;SDS011;34713;50.038;20.000;2022-08-06T04:34:54;14.63;;;8.63;;
48897;SDS011;34713;50.038;20.000;2022-08-06T04:37:21;16.52;;;8.85;;
48897;SDS011;34713;50.038;20.000;2022-08-06T04:39:48;12.98;;;9.40;;
48897;SDS011;34713;50.038;20.000;2022-08-06T04:42:14;11.60;;;7.87;;
48897;SDS011;34713;50.038;20.000;2022-08-06T04:44:41;13.75;;;8.85;;
48897;SDS011;34713;50.038;20.000;2022-08-06T04:47:08;14.87;;;10.18;;
48897;SDS011;34713;50.038;20.000;2022-08-06T04:49:35;14.43;;;8.93;;
48897;SDS011;34713;50.038;20.000;2022-08-06T04:52:01;13.95;;;9.83;;
48897;SDS011;34713;50.038;20.000;2022-08-06T04:54:27;12.60;;;9.28;;
48897;SDS011;34713;50.038;20.000;2022-08-06T04:56:52;12.28;;;9.08;;
48897;SDS011;34713;50.038;20.000;2022-08-06T04:59:18;13.35;;;8.50;;
48897;SDS011;34713;50.038;20.000;2022-08-06T05:01:44;11.05;;;9.00;;
48897;SDS011;34713;50.038;20.000;2022-08-06T05:04:10;13.35;;;9.48;;
48897;SDS011;34713;50.038;20.000;2022-08-06T05:06:50;15.23;;;9.60;;
48897;SDS011;34713;50.038;20.000;2022-08-06T05:09:39;13.72;;;9.63;;
48897;SDS011;34713;50.038;20.000;2022-08-06T05:12:29;14.25;;;8.98;;
48897;SDS011;34713;50.038;20.000;2022-08-06T05:17:40;13.03;;;9.60;;
48897;SDS011;34713;50.038;20.000;2022-08-06T05:20:18;12.20;;;9.60;;
48897;SDS011;34713;50.038;20.000;2022-08-06T05:22:47;13.08;;;10.28;;
48897;SDS011;34713;50.038;20.000;2022-08-06T05:25:16;12.78;;;9.68;;
48897;SDS011;34713;50.038;20.000;2022-08-06T05:27:42;14.90;;;9.40;;
48897;SDS011;34713;50.038;20.000;2022-08-06T05:30:09;11.00;;;8.80;;
48897;SDS011;34713;50.038;20.000;2022-08-06T05:32:40;11.40;;;8.48;;
48897;SDS011;34713;50.038;20.000;2022-08-06T05:35:10;13.38;;;9.23;;
48897;SDS011;34713;50.038;20.000;2022-08-06T05:37:36;19.60;;;8.68;;
48897;SDS011;34713;50.038;20.000;2022-08-06T05:40:03;12.35;;;8.60;;
48897;SDS011;34713;50.038;20.000;2022-08-06T05:42:31;11.78;;;8.25;;
48897;SDS011;34713;50.038;20.000;2022-08-06T05:44:57;12.10;;;8.50;;
48897;SDS011;34713;50.038;20.000;2022-08-06T05:47:32;10.38;;;8.13;;
48897;SDS011;34713;50.038;20.000;2022-08-06T05:49:59;11.95;;;8.45;;
48897;SDS011;34713;50.038;20.000;2022-08-06T05:52:28;9.73;;;8.15;;
48897;SDS011;34713;50.038;20.000;2022-08-06T05:55:00;12.13;;;8.33;;
48897;SDS011;34713;50.038;20.000;2022-08-06T05:57:40;10.45;;;7.17;;
48897;SDS011;34713;50.038;20.000;2022-08-06T06:00:16;11.73;;;8.55;;
48897;SDS011;34713;50.038;20.000;2022-08-06T06:02:45;11.53;;;7.92;;
48897;SDS011;34713;50.038;20.000;2022-08-06T06:05:14;12.53;;;7.92;;
48897;SDS011;34713;50.038;20.000;2022-08-06T06:07:40;9.90;;;7.95;;
48897;SDS011;34713;50.038;20.000;2022-08-06T06:10:07;10.38;;;7.72;;
48897;SDS011;34713;50.038;20.000;2022-08-06T06:12:34;11.20;;;7.83;;
48897;SDS011;34713;50.038;20.000;2022-08-06T06:15:02;11.03;;;7.62;;
48897;SDS011;34713;50.038;20.000;2022-08-06T06:17:33;9.98;;;7.95;;
48897;SDS011;34713;50.038;20.000;2022-08-06T06:23:34;13.65;;;7.95;;
48897;SDS011;34713;50.038;20.000;2022-08-06T06:26:12;12.75;;;8.08;;
48897;SDS011;34713;50.038;20.000;2022-08-06T06:34:49;9.50;;;7.40;;
48897;SDS011;34713;50.038;20.000;2022-08-06T06:43:11;19.20;;;7.65;;
48897;SDS011;34713;50.038;20.000;2022-08-06T06:48:27;9.40;;;6.67;;
48897;SDS011;34713;50.038;20.000;2022-08-06T06:54:02;8.40;;;6.47;;
48897;SDS011;34713;50.038;20.000;2022-08-06T06:56:29;10.60;;;6.95;;
48897;SDS011;34713;50.038;20.000;2022-08-06T06:59:01;9.30;;;6.25;;
48897;SDS011;34713;50.038;20.000;2022-08-06T07:01:36;10.48;;;6.35;;
48897;SDS011;34713;50.038;20.000;2022-08-06T07:04:05;10.65;;;6.95;;
48897;SDS011;34713;50.038;20.000;2022-08-06T07:06:34;13.20;;;6.25;;
48897;SDS011;34713;50.038;20.000;2022-08-06T07:09:01;10.85;;;6.55;;
48897;SDS011;34713;50.038;20.000;2022-08-06T07:11:28;7.85;;;5.97;;
48897;SDS011;34713;50.038;20.000;2022-08-06T07:13:56;9.40;;;6.50;;
48897;SDS011;34713;50.038;20.000;2022-08-06T07:16:24;8.90;;;5.92;;
48897;SDS011;34713;50.038;20.000;2022-08-06T07:18:52;10.53;;;6.35;;
48897;SDS011;34713;50.038;20.000;2022-08-06T07:21:19;6.75;;;5.90;;
48897;SDS011;34713;50.038;20.000;2022-08-06T07:23:51;7.40;;;6.17;;
48897;SDS011;34713;50.038;20.000;2022-08-06T07:26:17;7.80;;;5.97;;
48897;SDS011;34713;50.038;20.000;2022-08-06T07:28:46;7.28;;;6.40;;
48897;SDS011;34713;50.038;20.000;2022-08-06T07:31:13;10.15;;;6.05;;
48897;SDS011;34713;50.038;20.000;2022-08-06T07:33:41;8.45;;;5.87;;
48897;SDS011;34713;50.038;20.000;2022-08-06T07:36:11;9.83;;;6.72;;
48897;SDS011;34713;50.038;20.000;2022-08-06T07:38:40;7.50;;;6.65;;
48897;SDS011;34713;50.038;20.000;2022-08-06T07:41:09;10.78;;;6.80;;
48897;SDS011;34713;50.038;20.000;2022-08-06T07:43:46;8.18;;;6.92;;
48897;SDS011;34713;50.038;20.000;2022-08-06T07:46:21;7.85;;;7.12;;
48897;SDS011;34713;50.038;20.000;2022-08-06T07:49:00;7.95;;;6.85;;
48897;SDS011;34713;50.038;20.000;2022-08-06T07:53:57;9.25;;;7.60;;
48897;SDS011;34713;50.038;20.000;2022-08-06T07:56:25;9.90;;;7.92;;
48897;SDS011;34713;50.038;20.000;2022-08-06T07:58:52;11.15;;;9.65;;
48897;SDS011;34713;50.038;20.000;2022-08-06T08:01:20;9.45;;;8.40;;
48897;SDS011;34713;50.038;20.000;2022-08-06T08:03:47;11.05;;;9.05;;
48897;SDS011;34713;50.038;20.000;2022-08-06T08:06:31;10.28;;;9.20;;
48897;SDS011;34713;50.038;20.000;2022-08-06T08:09:02;11.12;;;9.00;;
48897;SDS011;34713;50.038;20.000;2022-08-06T08:11:31;10.55;;;9.40;;
48897;SDS011;34713;50.038;20.000;2022-08-06T08:13:58;10.93;;;9.18;;
48897;SDS011;34713;50.038;20.000;2022-08-06T08:16:27;10.13;;;9.23;;
48897;SDS011;34713;50.038;20.000;2022-08-06T08:18:53;9.83;;;8.83;;
48897;SDS011;34713;50.038;20.000;2022-08-06T08:21:20;9.10;;;8.23;;
48897;SDS011;34713;50.038;20.000;2022-08-06T08:23:47;9.95;;;8.78;;
48897;SDS011;34713;50.038;20.000;2022-08-06T08:26:14;8.83;;;7.85;;
48897;SDS011;34713;50.038;20.000;2022-08-06T08:28:40;10.00;;;7.97;;
48897;SDS011;34713;50.038;20.000;2022-08-06T08:31:06;8.25;;;7.45;;
48897;SDS011;34713;50.038;20.000;2022-08-06T08:33:34;9.75;;;7.53;;
48897;SDS011;34713;50.038;20.000;2022-08-06T08:36:00;8.18;;;7.37;;
48897;SDS011;34713;50.038;20.000;2022-08-06T08:38:27;7.90;;;6.67;;
48897;SDS011;34713;50.038;20.000;2022-08-06T08:40:55;8.20;;;6.55;;
48897;SDS011;34713;50.038;20.000;2022-08-06T08:43:25;10.98;;;7.00;;
48897;SDS011;34713;50.038;20.000;2022-08-06T08:45:56;8.40;;;6.62;;
48897;SDS011;34713;50.038;20.000;2022-08-06T08:48:24;8.23;;;6.10;;
48897;SDS011;34713;50.038;20.000;2022-08-06T08:50:54;5.75;;;5.25;;
48897;SDS011;34713;50.038;20.000;2022-08-06T08:53:34;6.33;;;5.22;;
48897;SDS011;34713;50.038;20.000;2022-08-06T08:56:04;6.92;;;5.45;;
48897;SDS011;34713;50.038;20.000;2022-08-06T08:58:31;4.47;;;4.08;;
48897;SDS011;34713;50.038;20.000;2022-08-06T09:00:59;5.20;;;4.70;;
48897;SDS011;34713;50.038;20.000;2022-08-06T09:03:26;5.75;;;4.00;;
48897;SDS011;34713;50.038;20.000;2022-08-06T09:05:52;5.80;;;4.20;;
48897;SDS011;34713;50.038;20.000;2022-08-06T09:08:19;4.30;;;3.33;;
48897;SDS011;34713;50.038;20.000;2022-08-06T09:10:45;4.05;;;3.30;;
48897;SDS011;34713;50.038;20.000;2022-08-06T09:13:12;4.28;;;2.40;;
48897;SDS011;34713;50.038;20.000;2022-08-06T09:15:38;2.15;;;1.95;;
48897;SDS011;34713;50.038;20.000;2022-08-06T09:18:04;3.40;;;1.85;;
48897;SDS011;34713;50.038;20.000;2022-08-06T09:20:30;3.55;;;2.62;;
48897;SDS011;34713;50.038;20.000;2022-08-06T09:22:56;4.60;;;1.80;;
48897;SDS011;34713;50.038;20.000;2022-08-06T09:28:32;3.08;;;2.25;;
48897;SDS011;34713;50.038;20.000;2022-08-06T09:33:52;7.80;;;1.62;;
48897;SDS011;34713;50.038;20.000;2022-08-06T09:36:10;4.67;;;2.22;;
48897;SDS011;34713;50.038;20.000;2022-08-06T09:38:47;2.20;;;1.60;;
48897;SDS011;34713;50.038;20.000;2022-08-06T09:43:50;2.12;;;1.70;;
48897;SDS011;34713;50.038;20.000;2022-08-06T09:46:34;3.65;;;1.77;;
48897;SDS011;34713;50.038;20.000;2022-08-06T09:49:10;2.50;;;1.40;;
48897;SDS011;34713;50.038;20.000;2022-08-06T09:51:38;3.10;;;1.37;;
48897;SDS011;34713;50.038;20.000;2022-08-06T09:54:07;2.08;;;1.67;;
48897;SDS011;34713;50.038;20.000;2022-08-06T09:56:37;2.58;;;1.57;;
48897;SDS011;34713;50.038;20.000;2022-08-06T09:59:05;3.95;;;1.50;;
48897;SDS011;34713;50.038;20.000;2022-08-06T10:01:41;2.52;;;1.55;;
48897;SDS011;34713;50.038;20.000;2022-08-06T10:04:12;2.95;;;1.85;;
48897;SDS011;34713;50.038;20.000;2022-08-06T10:06:51;2.45;;;1.70;;
48897;SDS011;34713;50.038;20.000;2022-08-06T10:09:19;6.22;;;1.45;;
48897;SDS011;34713;50.038;20.000;2022-08-06T10:11:45;1.60;;;1.40;;
48897;SDS011;34713;50.038;20.000;2022-08-06T10:19:40;2.50;;;1.70;;
48897;SDS011;34713;50.038;20.000;2022-08-06T10:22:09;3.58;;;1.10;;
48897;SDS011;34713;50.038;20.000;2022-08-06T10:24:41;2.33;;;1.47;;
48897;SDS011;34713;50.038;20.000;2022-08-06T10:27:14;2.90;;;1.30;;
48897;SDS011;34713;50.038;20.000;2022-08-06T10:32:20;3.15;;;1.20;;
48897;SDS011;34713;50.038;20.000;2022-08-06T10:35:08;3.05;;;1.20;;
48897;SDS011;34713;50.038;20.000;2022-08-06T10:37:37;2.60;;;1.10;;
48897;SDS011;34713;50.038;20.000;2022-08-06T10:40:08;3.00;;;1.30;;
48897;SDS011;34713;50.038;20.000;2022-08-06T10:42:38;1.50;;;1.30;;
48897;SDS011;34713;50.038;20.000;2022-08-06T10:45:04;3.37;;;1.30;;
48897;SDS011;34713;50.038;20.000;2022-08-06T10:47:33;2.92;;;1.27;;
48897;SDS011;34713;50.038;20.000;2022-08-06T10:50:00;1.85;;;1.00;;
48897;SDS011;34713;50.038;20.000;2022-08-06T10:52:26;1.87;;;1.20;;
48897;SDS011;34713;50.038;20.000;2022-08-06T10:54:53;1.47;;;1.17;;
48897;SDS011;34713;50.038;20.000;2022-08-06T10:57:21;2.45;;;1.02;;
48897;SDS011;34713;50.038;20.000;2022-08-06T10:59:47;3.90;;;1.40;;
48897;SDS011;34713;50.038;20.000;2022-08-06T11:02:32;4.42;;;1.12;;
48897;SDS011;34713;50.038;20.000;2022-08-06T11:05:20;1.90;;;1.07;;
48897;SDS011;34713;50.038;20.000;2022-08-06T11:16:22;1.37;;;0.82;;
48897;SDS011;34713;50.038;20.000;2022-08-06T11:19:03;0.72;;;0.72;;
48897;SDS011;34713;50.038;20.000;2022-08-06T11:24:10;3.65;;;1.02;;
48897;SDS011;34713;50.038;20.000;2022-08-06T11:26:39;2.35;;;1.10;;
48897;SDS011;34713;50.038;20.000;2022-08-06T11:29:08;3.05;;;1.10;;
48897;SDS011;34713;50.038;20.000;2022-08-06T11:31:39;1.80;;;1.07;;
48897;SDS011;34713;50.038;20.000;2022-08-06T11:34:11;1.55;;;0.98;;
48897;SDS011;34713;50.038;20.000;2022-08-06T11:36:49;1.72;;;1.02;;
48897;SDS011;34713;50.038;20.000;2022-08-06T11:39:24;1.52;;;0.98;;
48897;SDS011;34713;50.038;20.000;2022-08-06T11:41:59;3.22;;;0.98;;
48897;SDS011;34713;50.038;20.000;2022-08-06T11:44:29;3.40;;;1.05;;
48897;SDS011;34713;50.038;20.000;2022-08-06T11:47:11;2.75;;;0.75;;
48897;SDS011;34713;50.038;20.000;2022-08-06T11:49:43;1.67;;;0.90;;
48897;SDS011;34713;50.038;20.000;2022-08-06T11:55:01;1.60;;;0.90;;
48897;SDS011;34713;50.038;20.000;2022-08-06T11:57:30;4.35;;;1.20;;
48897;SDS011;34713;50.038;20.000;2022-08-06T12:07:46;1.62;;;1.27;;
48897;SDS011;34713;50.038;20.000;2022-08-06T12:10:34;1.62;;;1.22;;
48897;SDS011;34713;50.038;20.000;2022-08-06T12:13:00;3.00;;;1.07;;
48897;SDS011;34713;50.038;20.000;2022-08-06T12:17:57;1.42;;;0.68;;
48897;SDS011;34713;50.038;20.000;2022-08-06T12:20:34;1.20;;;0.50;;
48897;SDS011;34713;50.038;20.000;2022-08-06T12:23:14;2.05;;;0.57;;
48897;SDS011;34713;50.038;20.000;2022-08-06T12:25:42;1.02;;;0.40;;
48897;SDS011;34713;50.038;20.000;2022-08-06T12:28:13;0.78;;;0.40;;
48897;SDS011;34713;50.038;20.000;2022-08-06T12:30:52;1.10;;;0.33;;
48897;SDS011;34713;50.038;20.000;2022-08-06T12:33:17;0.82;;;0.40;;
48897;SDS011;34713;50.038;20.000;2022-08-06T12:35:52;0.65;;;0.50;;
48897;SDS011;34713;50.038;20.000;2022-08-06T12:38:22;0.82;;;0.40;;
48897;SDS011;34713;50.038;20.000;2022-08-06T12:41:01;2.02;;;0.50;;
48897;SDS011;34713;50.038;20.000;2022-08-06T12:43:33;1.37;;;0.50;;
48897;SDS011;34713;50.038;20.000;2022-08-06T12:46:01;0.75;;;0.40;;
48897;SDS011;34713;50.038;20.000;2022-08-06T12:48:30;3.30;;;0.72;;
48897;SDS011;34713;50.038;20.000;2022-08-06T12:51:02;0.80;;;0.70;;
48897;SDS011;34713;50.038;20.000;2022-08-06T12:53:32;2.95;;;1.25;;
48897;SDS011;34713;50.038;20.000;2022-08-06T12:56:00;3.12;;;1.67;;
48897;SDS011;34713;50.038;20.000;2022-08-06T13:01:00;3.40;;;3.10;;
48897;SDS011;34713;50.038;20.000;2022-08-06T13:03:29;3.77;;;3.17;;
48897;SDS011;34713;50.038;20.000;2022-08-06T13:05:58;3.47;;;3.08;;
48897;SDS011;34713;50.038;20.000;2022-08-06T13:08:26;4.80;;;3.20;;
48897;SDS011;34713;50.038;20.000;2022-08-06T13:10:54;3.77;;;2.80;;
48897;SDS011;34713;50.038;20.000;2022-08-06T13:13:33;3.72;;;2.70;;
48897;SDS011;34713;50.038;20.000;2022-08-06T13:16:06;3.17;;;2.50;;
48897;SDS011;34713;50.038;20.000;2022-08-06T13:18:37;2.98;;;2.50;;
48897;SDS011;34713;50.038;20.000;2022-08-06T13:21:18;3.47;;;2.30;;
48897;SDS011;34713;50.038;20.000;2022-08-06T13:23:47;2.80;;;2.42;;
48897;SDS011;34713;50.038;20.000;2022-08-06T13:31:47;3.40;;;3.00;;
48897;SDS011;34713;50.038;20.000;2022-08-06T13:34:44;3.22;;;2.60;;
48897;SDS011;34713;50.038;20.000;2022-08-06T13:37:13;4.67;;;2.92;;
48897;SDS011;34713;50.038;20.000;2022-08-06T13:39:49;3.35;;;2.67;;
48897;SDS011;34713;50.038;20.000;2022-08-06T13:42:17;3.25;;;2.30;;
48897;SDS011;34713;50.038;20.000;2022-08-06T13:44:43;2.75;;;1.90;;
48897;SDS011;34713;50.038;20.000;2022-08-06T13:47:11;2.25;;;1.75;;
48897;SDS011;34713;50.038;20.000;2022-08-06T13:49:41;1.95;;;1.72;;
48897;SDS011;34713;50.038;20.000;2022-08-06T13:52:07;2.55;;;2.15;;
48897;SDS011;34713;50.038;20.000;2022-08-06T13:54:33;2.47;;;1.70;;
48897;SDS011;34713;50.038;20.000;2022-08-06T13:57:00;2.17;;;1.98;;
48897;SDS011;34713;50.038;20.000;2022-08-06T13:59:28;2.35;;;2.02;;
48897;SDS011;34713;50.038;20.000;2022-08-06T14:01:59;2.17;;;1.62;;
48897;SDS011;34713;50.038;20.000;2022-08-06T14:04:26;3.85;;;2.00;;
48897;SDS011;34713;50.038;20.000;2022-08-06T14:06:55;3.35;;;2.15;;
48897;SDS011;34713;50.038;20.000;2022-08-06T14:09:23;2.25;;;1.75;;
48897;SDS011;34713;50.038;20.000;2022-08-06T14:11:56;1.45;;;1.27;;
48897;SDS011;34713;50.038;20.000;2022-08-06T14:14:22;1.65;;;1.30;;
48897;SDS011;34713;50.038;20.000;2022-08-06T14:16:50;1.30;;;1.20;;
48897;SDS011;34713;50.038;20.000;2022-08-06T14:19:16;1.50;;;1.40;;
48897;SDS011;34713;50.038;20.000;2022-08-06T14:21:42;2.25;;;1.22;;
48897;SDS011;34713;50.038;20.000;2022-08-06T14:24:08;2.25;;;1.15;;
48897;SDS011;34713;50.038;20.000;2022-08-06T14:26:34;1.25;;;0.93;;
48897;SDS011;34713;50.038;20.000;2022-08-06T14:29:01;1.85;;;1.05;;
48897;SDS011;34713;50.038;20.000;2022-08-06T14:31:28;1.65;;;0.90;;
48897;SDS011;34713;50.038;20.000;2022-08-06T14:33:57;2.35;;;0.90;;
48897;SDS011;34713;50.038;20.000;2022-08-06T14:36:26;1.02;;;0.80;;
48897;SDS011;34713;50.038;20.000;2022-08-06T14:38:55;1.72;;;0.90;;
48897;SDS011;34713;50.038;20.000;2022-08-06T14:41:22;1.50;;;1.10;;
48897;SDS011;34713;50.038;20.000;2022-08-06T14:44:07;1.30;;;1.00;;
48897;SDS011;34713;50.038;20.000;2022-08-06T14:46:53;1.42;;;0.80;;
48897;SDS011;34713;50.038;20.000;2022-08-06T14:49:19;1.72;;;1.10;;
48897;SDS011;34713;50.038;20.000;2022-08-06T14:51:45;2.37;;;1.05;;
48897;SDS011;34713;50.038;20.000;2022-08-06T14:54:11;2.83;;;1.52;;
48897;SDS011;34713;50.038;20.000;2022-08-06T14:56:37;7.08;;;2.55;;
48897;SDS011;34713;50.038;20.000;2022-08-06T14:59:03;1.00;;;0.80;;
48897;SDS011;34713;50.038;20.000;2022-08-06T15:01:30;1.02;;;0.82;;
48897;SDS011;34713;50.038;20.000;2022-08-06T15:03:56;1.50;;;0.90;;
48897;SDS011;34713;50.038;20.000;2022-08-06T15:06:21;1.52;;;0.75;;
48897;SDS011;34713;50.038;20.000;2022-08-06T15:08:47;1.15;;;0.80;;
48897;SDS011;34713;50.038;20.000;2022-08-06T15:11:13;0.78;;;0.60;;
48897;SDS011;34713;50.038;20.000;2022-08-06T15:13:38;1.62;;;0.75;;
48897;SDS011;34713;50.038;20.000;2022-08-06T15:16:04;1.22;;;0.70;;
48897;SDS011;34713;50.038;20.000;2022-08-06T15:18:31;1.10;;;0.90;;
48897;SDS011;34713;50.038;20.000;2022-08-06T15:20:57;1.15;;;0.80;;
48897;SDS011;34713;50.038;20.000;2022-08-06T15:23:23;1.15;;;0.72;;
48897;SDS011;34713;50.038;20.000;2022-08-06T15:25:48;3.10;;;0.82;;
48897;SDS011;34713;50.038;20.000;2022-08-06T15:28:14;1.57;;;0.60;;
48897;SDS011;34713;50.038;20.000;2022-08-06T15:30:41;0.47;;;0.30;;
48897;SDS011;34713;50.038;20.000;2022-08-06T15:33:07;0.98;;;0.40;;
48897;SDS011;34713;50.038;20.000;2022-08-06T15:35:33;0.88;;;0.50;;
48897;SDS011;34713;50.038;20.000;2022-08-06T15:37:59;1.52;;;0.40;;
48897;SDS011;34713;50.038;20.000;2022-08-06T15:40:24;1.72;;;0.70;;
48897;SDS011;34713;50.038;20.000;2022-08-06T15:42:50;1.55;;;0.70;;
48897;SDS011;34713;50.038;20.000;2022-08-06T15:45:16;1.10;;;0.50;;
48897;SDS011;34713;50.038;20.000;2022-08-06T15:47:42;1.60;;;0.60;;
48897;SDS011;34713;50.038;20.000;2022-08-06T15:50:08;1.77;;;1.00;;
48897;SDS011;34713;50.038;20.000;2022-08-06T15:52:34;1.45;;;0.70;;
48897;SDS011;34713;50.038;20.000;2022-08-06T15:55:01;1.42;;;1.00;;
48897;SDS011;34713;50.038;20.000;2022-08-06T15:57:28;1.87;;;0.82;;
48897;SDS011;34713;50.038;20.000;2022-08-06T15:59:54;0.70;;;0.57;;
48897;SDS011;34713;50.038;20.000;2022-08-06T16:02:19;2.67;;;1.30;;
48897;SDS011;34713;50.038;20.000;2022-08-06T16:04:45;1.72;;;0.93;;
48897;SDS011;34713;50.038;20.000;2022-08-06T16:07:11;4.42;;;0.80;;